Time;durP1;ratioP1;P1;durP2;ratioP2;P2;SDS_P1;SDS_P2;PMS_P1;PMS_P2;Temp;Humidity;BMP_temperature;BMP_pressure;BME280_temperature;BME280_humidity;BME280_pressure;Samples;Min_cycle;Max_cycle;Signal;HPM_P1;HPM_P2
2024/04/21 00:01:20;;;;;;;;;;;;;;;11.14;100.00;98191.19;5459773;26;20364;-85
2024/04/21 00:03:46;;;;;;;;;;;;;;;11.11;100.00;98194.06;5459143;26;19932;-85
2024/04/21 00:06:11;;;;;;;;;;;;;;;11.20;100.00;98188.59;5458468;26;19928;-86
2024/04/21 00:08:36;;;;;;;;;;;;;;;11.25;100.00;98179.72;5459149;26;19928;-85
2024/04/21 00:11:01;;;;;;;;;;;;;;;11.26;100.00;98190.34;5459756;26;19997;-83
2024/04/21 00:13:27;;;;;;;;;;;;;;;11.28;100.00;98189.84;5459652;26;19928;-83
2024/04/21 00:15:52;;;;;;;;;;;;;;;11.30;100.00;98185.44;5491982;26;19932;-84
2024/04/21 00:18:17;;;;;;;;;;;;;;;11.29;100.00;98183.88;5459171;26;19932;-84
2024/04/21 00:20:42;;;;;;;;;;;;;;;11.26;100.00;98187.56;5459038;26;20363;-83
2024/04/21 00:23:08;;;;;;;;;;;;;;;11.36;100.00;98188.38;5459673;26;19934;-83
2024/04/21 00:25:34;;;;;;;;;;;;;;;11.44;100.00;98192.41;5459364;26;19940;-84
2024/04/21 00:27:59;;;;;;;;;;;;;;;11.37;100.00;98190.69;5459027;26;19928;-84
2024/04/21 00:30:24;;;;;;;;;;;;;;;11.24;100.00;98189.22;5458773;26;19928;-84
2024/04/21 00:32:49;;;;;;;;;;;;;;;11.30;100.00;98192.94;5458949;26;19939;-85
2024/04/21 00:35:15;;;;;;;;;;;;;;;11.27;100.00;98188.34;5458769;26;19935;-84
2024/04/21 00:37:40;;;;;;;;;;;;;;;11.23;100.00;98188.47;5459741;26;20317;-84
2024/04/21 00:40:06;;;;;;;;;;;;;;;11.23;100.00;98191.22;5458509;26;20428;-85
2024/04/21 00:42:31;;;;;;;;;;;;;;;11.25;100.00;98182.47;5458974;26;19927;-84
2024/04/21 00:44:56;;;;;;;;;;;;;;;11.20;100.00;98183.06;5458390;26;19935;-83
2024/04/21 00:47:22;;;;;;;;;;;;;;;11.21;100.00;98179.84;5459106;26;19928;-84
2024/04/21 00:49:47;;;;;;;;;;;;;;;11.15;100.00;98184.41;5458830;26;19935;-83
2024/04/21 00:52:12;;;;;;;;;;;;;;;11.22;100.00;98175.84;5458992;26;20280;-84
2024/04/21 00:54:39;;;;;;;;;;;;;;;11.19;100.00;98178.78;5459045;26;20356;-82
2024/04/21 00:57:04;;;;;;;;;;;;;;;11.18;100.00;98174.44;5459136;26;19996;-83
2024/04/21 00:59:30;;;;;;;;;;;;;;;11.17;100.00;98176.44;5457696;26;19939;-85
2024/04/21 01:01:55;;;;;;;;;;;;;;;11.18;100.00;98182.75;5459360;26;20344;-85
2024/04/21 01:04:21;;;;;;;;;;;;;;;11.10;100.00;98179.47;5459029;26;19935;-84
2024/04/21 01:06:46;;;;;;;;;;;;;;;11.02;100.00;98180.97;5459263;26;19943;-85
2024/04/21 01:09:12;;;;;;;;;;;;;;;10.87;100.00;98179.97;5490764;26;20322;-86
2024/04/21 01:11:45;;;;;;;;;;;;;;;10.86;100.00;98186.69;5459083;26;19928;-86
2024/04/21 01:14:10;;;;;;;;;;;;;;;10.91;100.00;98186.88;5490817;26;19935;-85
2024/04/21 01:16:35;;;;;;;;;;;;;;;10.90;100.00;98176.31;5459379;26;19936;-85
2024/04/21 01:19:01;;;;;;;;;;;;;;;10.91;100.00;98175.09;5457254;26;20312;-84
2024/04/21 01:21:26;;;;;;;;;;;;;;;10.88;100.00;98179.50;5458464;26;19928;-85
2024/04/21 01:23:51;;;;;;;;;;;;;;;10.94;100.00;98177.72;5458779;26;19939;-86
2024/04/21 01:26:17;;;;;;;;;;;;;;;10.94;100.00;98177.72;5459025;26;19936;-85
2024/04/21 01:28:42;;;;;;;;;;;;;;;10.85;100.00;98179.66;5459582;26;19928;-85
2024/04/21 01:31:07;;;;;;;;;;;;;;;10.82;100.00;98181.31;5459414;26;20251;-85
2024/04/21 01:33:32;;;;;;;;;;;;;;;10.83;100.00;98173.78;5459075;26;19928;-85
2024/04/21 01:35:58;;;;;;;;;;;;;;;10.78;100.00;98175.16;5491083;26;20368;-84
2024/04/21 01:38:23;;;;;;;;;;;;;;;10.75;100.00;98181.56;5491824;26;19934;-83
2024/04/21 01:40:49;;;;;;;;;;;;;;;10.64;100.00;98172.91;5459409;26;19940;-84
2024/04/21 01:43:14;;;;;;;;;;;;;;;10.58;100.00;98169.16;5435935;26;19934;-85
2024/04/21 01:45:39;;;;;;;;;;;;;;;10.68;100.00;98167.22;5458963;26;19927;-85
2024/04/21 01:48:05;;;;;;;;;;;;;;;10.57;100.00;98162.88;5458998;26;19997;-85
2024/04/21 01:50:30;;;;;;;;;;;;;;;10.48;100.00;98162.81;5459063;26;20263;-84
2024/04/21 01:52:56;;;;;;;;;;;;;;;10.48;100.00;98151.00;5458981;26;19936;-85
2024/04/21 01:55:21;;;;;;;;;;;;;;;10.40;100.00;98147.72;5459287;26;19935;-85
2024/04/21 01:57:46;;;;;;;;;;;;;;;10.35;100.00;98148.28;5483472;26;19928;-85
2024/04/21 02:00:11;;;;;;;;;;;;;;;10.33;100.00;98149.94;5459157;26;19928;-86
2024/04/21 02:02:37;;;;;;;;;;;;;;;10.34;100.00;98152.25;5466979;26;19928;-86
2024/04/21 02:05:02;;;;;;;;;;;;;;;10.25;100.00;98163.22;5459540;26;19935;-86
2024/04/21 02:07:27;;;;;;;;;;;;;;;10.23;100.00;98145.56;5458503;26;19935;-85
2024/04/21 02:09:53;;;;;;;;;;;;;;;10.14;100.00;98147.00;5459792;26;19928;-88
2024/04/21 02:12:18;;;;;;;;;;;;;;;10.04;100.00;98147.38;5458757;26;19928;-87
2024/04/21 02:14:43;;;;;;;;;;;;;;;9.93;100.00;98161.53;5490849;26;20017;-87
2024/04/21 02:17:08;;;;;;;;;;;;;;;9.74;100.00;98162.56;5458581;26;20329;-84
2024/04/21 02:19:34;;;;;;;;;;;;;;;9.87;100.00;98163.31;5459413;26;19928;-87
2024/04/21 02:21:59;;;;;;;;;;;;;;;9.89;100.00;98168.38;5453585;26;20340;-86
2024/04/21 02:24:25;;;;;;;;;;;;;;;9.88;100.00;98169.59;5439326;26;20010;-86
2024/04/21 02:26:51;;;;;;;;;;;;;;;9.85;100.00;98164.97;5458315;26;19934;-87
2024/04/21 02:29:16;;;;;;;;;;;;;;;9.75;100.00;98167.63;5442164;26;20037;-89
2024/04/21 02:31:41;;;;;;;;;;;;;;;9.82;100.00;98171.38;5450737;26;19927;-87
2024/04/21 02:34:07;;;;;;;;;;;;;;;9.78;100.00;98168.72;5490439;26;19936;-88
2024/04/21 02:36:32;;;;;;;;;;;;;;;9.72;100.00;98168.50;5459282;26;20270;-87
2024/04/21 02:38:57;;;;;;;;;;;;;;;9.68;100.00;98172.59;5458824;26;19928;-88
2024/04/21 02:41:23;;;;;;;;;;;;;;;9.71;100.00;98172.47;5458858;26;19965;-85
2024/04/21 02:43:48;;;;;;;;;;;;;;;9.73;100.00;98177.56;5443076;26;19935;-87
2024/04/21 02:46:15;;;;;;;;;;;;;;;9.69;100.00;98176.91;5450981;26;19996;-87
2024/04/21 02:48:40;;;;;;;;;;;;;;;9.73;100.00;98174.81;5458608;26;19931;-88
2024/04/21 02:51:05;;;;;;;;;;;;;;;9.80;100.00;98174.56;5458515;26;20264;-87
2024/04/21 02:53:31;;;;;;;;;;;;;;;9.77;100.00;98175.44;5458437;26;19935;-85
2024/04/21 02:55:56;;;;;;;;;;;;;;;9.82;100.00;98178.41;5458704;26;19928;-87
2024/04/21 02:58:21;;;;;;;;;;;;;;;9.88;100.00;98180.66;5458836;26;20367;-87
2024/04/21 03:00:46;;;;;;;;;;;;;;;9.87;100.00;98179.09;5457925;26;19928;-89
2024/04/21 03:03:12;;;;;;;;;;;;;;;9.74;100.00;98176.34;5458095;26;19928;-86
2024/04/21 03:05:37;;;;;;;;;;;;;;;9.67;100.00;98182.88;5458592;26;19928;-87
2024/04/21 03:08:03;;;;;;;;;;;;;;;9.57;100.00;98181.22;5458309;26;19932;-87
2024/04/21 03:10:28;;;;;;;;;;;;;;;9.65;100.00;98177.00;5458447;26;19995;-85
2024/04/21 03:12:54;;;;;;;;;;;;;;;9.58;100.00;98184.75;5457764;26;20348;-88
2024/04/21 03:15:19;;;;;;;;;;;;;;;9.52;100.00;98181.78;5489552;26;19928;-88
2024/04/21 03:17:45;;;;;;;;;;;;;;;9.51;100.00;98179.47;5458620;26;20000;-87
2024/04/21 03:20:10;;;;;;;;;;;;;;;9.40;100.00;98182.56;5458020;26;19928;-88
2024/04/21 03:22:35;;;;;;;;;;;;;;;9.44;100.00;98183.22;5458241;26;19939;-87
2024/04/21 03:25:01;;;;;;;;;;;;;;;9.46;100.00;98180.78;5463848;26;19936;-87
2024/04/21 03:27:26;;;;;;;;;;;;;;;9.40;100.00;98177.03;5457991;26;20000;-87
2024/04/21 03:29:51;;;;;;;;;;;;;;;9.42;100.00;98182.09;5457452;26;19928;-89
2024/04/21 03:32:17;;;;;;;;;;;;;;;9.47;100.00;98182.31;5464434;26;20379;-88
2024/04/21 03:34:43;;;;;;;;;;;;;;;9.37;100.00;98175.16;5457271;26;19935;-89
2024/04/21 03:37:09;;;;;;;;;;;;;;;9.20;100.00;98177.25;5466350;26;19932;-89
2024/04/21 03:39:34;;;;;;;;;;;;;;;9.18;100.00;98170.63;5457335;26;20268;-88
2024/04/21 03:41:59;;;;;;;;;;;;;;;9.28;100.00;98183.31;5459346;26;19928;-87
2024/04/21 03:44:24;;;;;;;;;;;;;;;9.35;100.00;98177.56;5460615;26;19996;-86
2024/04/21 03:46:50;;;;;;;;;;;;;;;9.46;100.00;98178.03;5460674;26;20383;-86
2024/04/21 03:49:15;;;;;;;;;;;;;;;9.61;100.00;98184.63;5437035;26;19936;-87
2024/04/21 03:51:40;;;;;;;;;;;;;;;9.73;100.00;98189.38;5480949;26;20359;-86
2024/04/21 03:54:06;;;;;;;;;;;;;;;9.90;100.00;98189.22;5449635;26;19928;-86
2024/04/21 03:56:31;;;;;;;;;;;;;;;10.03;100.00;98182.47;5460739;26;19939;-88
2024/04/21 03:58:56;;;;;;;;;;;;;;;10.09;100.00;98190.97;5461252;26;19928;-86
2024/04/21 04:01:22;;;;;;;;;;;;;;;10.17;100.00;98193.09;5461073;26;19995;-86
2024/04/21 04:03:47;;;;;;;;;;;;;;;10.30;100.00;98195.81;5460853;26;19928;-86
2024/04/21 04:06:12;;;;;;;;;;;;;;;10.36;100.00;98191.25;5460679;26;19939;-88
2024/04/21 04:08:38;;;;;;;;;;;;;;;10.42;100.00;98196.97;5461066;26;19932;-87
2024/04/21 04:11:03;;;;;;;;;;;;;;;10.42;100.00;98200.50;5460876;26;19935;-86
2024/04/21 04:13:28;;;;;;;;;;;;;;;10.46;100.00;98203.13;5460904;26;19932;-85
2024/04/21 04:15:53;;;;;;;;;;;;;;;10.48;100.00;98201.50;5461012;26;19935;-86
2024/04/21 04:18:19;;;;;;;;;;;;;;;10.57;100.00;98198.00;5438259;26;19929;-86
2024/04/21 04:20:45;;;;;;;;;;;;;;;10.60;100.00;98203.44;5459723;26;19939;-85
2024/04/21 04:23:11;;;;;;;;;;;;;;;10.68;100.00;98203.16;5460977;26;19996;-85
2024/04/21 04:25:36;;;;;;;;;;;;;;;10.70;100.00;98206.25;5460622;26;19932;-88
2024/04/21 04:28:02;;;;;;;;;;;;;;;10.89;100.00;98200.41;5460748;26;19935;-86
2024/04/21 04:30:27;;;;;;;;;;;;;;;11.01;100.00;98204.31;5460663;26;19960;-85
2024/04/21 04:32:52;;;;;;;;;;;;;;;11.13;100.00;98205.47;5460487;26;19931;-85
2024/04/21 04:35:18;;;;;;;;;;;;;;;11.17;100.00;98204.09;5460958;26;20268;-84
2024/04/21 04:37:43;;;;;;;;;;;;;;;11.14;100.00;98207.78;5460129;26;19928;-84
2024/04/21 04:40:08;;;;;;;;;;;;;;;11.37;100.00;98217.56;5459785;26;19954;-84
2024/04/21 04:42:34;;;;;;;;;;;;;;;11.70;98.76;98215.88;5460530;26;19928;-84
2024/04/21 04:45:00;;;;;;;;;;;;;;;11.70;96.85;98218.63;5460447;26;20368;-83
2024/04/21 04:47:25;;;;;;;;;;;;;;;12.20;95.84;98225.72;5460378;26;20317;-84
2024/04/21 04:49:51;;;;;;;;;;;;;;;13.05;91.07;98226.84;5450405;26;20001;-85
2024/04/21 04:52:16;;;;;;;;;;;;;;;13.23;86.72;98210.19;5445543;26;19928;-83
2024/04/21 04:54:41;;;;;;;;;;;;;;;13.70;86.18;98212.34;5460388;26;20401;-82
2024/04/21 04:57:06;;;;;;;;;;;;;;;15.21;78.14;98216.22;5460209;26;19931;-82
2024/04/21 04:59:32;;;;;;;;;;;;;;;16.52;66.96;98231.13;5459951;26;19931;-81
2024/04/21 05:01:57;;;;;;;;;;;;;;;16.70;62.62;98221.72;5459902;26;19928;-82
2024/04/21 05:04:22;;;;;;;;;;;;;;;16.34;61.33;98225.81;5459955;26;19936;-80
2024/04/21 05:06:47;;;;;;;;;;;;;;;15.37;65.68;98224.06;5459969;26;19928;-81
2024/04/21 05:09:13;;;;;;;;;;;;;;;15.31;69.74;98230.81;5459261;26;19992;-80
2024/04/21 05:11:39;;;;;;;;;;;;;;;15.77;67.95;98225.53;5459610;26;20299;-83
2024/04/21 05:14:04;;;;;;;;;;;;;;;17.51;62.12;98229.94;5458967;26;19936;-80
2024/04/21 05:16:29;;;;;;;;;;;;;;;19.58;52.40;98224.06;5491968;26;19932;-80
2024/04/21 05:18:54;;;;;;;;;;;;;;;21.00;44.42;98233.19;5435455;26;19935;-79
2024/04/21 05:21:20;;;;;;;;;;;;;;;21.10;43.45;98229.53;5459563;26;19927;-80
2024/04/21 05:23:45;;;;;;;;;;;;;;;21.76;41.49;98227.56;5492176;26;19935;-82
2024/04/21 05:26:11;;;;;;;;;;;;;;;22.61;40.61;98225.44;5459729;26;19935;-82
2024/04/21 05:28:36;;;;;;;;;;;;;;;23.38;38.47;98231.38;5436533;26;19928;-80
2024/04/21 05:31:01;;;;;;;;;;;;;;;22.64;38.75;98233.63;5460241;26;20000;-81
2024/04/21 05:33:27;;;;;;;;;;;;;;;21.17;40.97;98233.88;5459141;26;19928;-80
2024/04/21 05:35:52;;;;;;;;;;;;;;;20.43;42.79;98237.50;5459398;26;19928;-82
2024/04/21 05:38:17;;;;;;;;;;;;;;;18.86;46.60;98232.31;5458619;26;19934;-80
2024/04/21 05:40:42;;;;;;;;;;;;;;;17.46;50.17;98233.44;5459974;26;20257;-81
2024/04/21 05:43:09;;;;;;;;;;;;;;;16.25;55.68;98231.53;5458720;26;19928;-80
2024/04/21 05:45:34;;;;;;;;;;;;;;;15.68;59.90;98220.81;5455828;26;19977;-81
2024/04/21 05:47:59;;;;;;;;;;;;;;;15.24;63.41;98228.41;5459370;26;19936;-81
2024/04/21 05:50:25;;;;;;;;;;;;;;;15.00;64.22;98234.81;5459464;26;19928;-81
2024/04/21 05:52:50;;;;;;;;;;;;;;;14.93;67.84;98234.41;5458786;26;19935;-80
2024/04/21 05:55:15;;;;;;;;;;;;;;;14.69;69.24;98237.25;5458302;26;19938;-82
2024/04/21 05:57:40;;;;;;;;;;;;;;;14.89;69.24;98236.63;5453668;26;19997;-81
2024/04/21 06:00:06;;;;;;;;;;;;;;;14.94;68.91;98250.63;5439915;26;19935;-82
2024/04/21 06:02:31;;;;;;;;;;;;;;;15.26;66.36;98248.94;5458309;26;20004;-79
2024/04/21 06:04:57;;;;;;;;;;;;;;;15.29;65.41;98252.78;5457001;26;19928;-80
2024/04/21 06:07:22;;;;;;;;;;;;;;;15.07;67.14;98253.91;5488538;26;19978;-83
2024/04/21 06:09:47;;;;;;;;;;;;;;;14.75;68.76;98245.69;5458456;26;19927;-80
2024/04/21 06:12:12;;;;;;;;;;;;;;;14.62;68.97;98255.06;5458662;26;19942;-81
2024/04/21 06:14:38;;;;;;;;;;;;;;;14.58;71.76;98246.13;5458091;26;20360;-79
2024/04/21 06:17:03;;;;;;;;;;;;;;;14.83;69.12;98244.84;5458820;26;19928;-82
2024/04/21 06:19:28;;;;;;;;;;;;;;;15.06;67.65;98243.28;5458147;26;20331;-80
2024/04/21 06:21:54;;;;;;;;;;;;;;;15.24;68.16;98248.66;5458673;26;19928;-79
2024/04/21 06:24:19;;;;;;;;;;;;;;;15.43;65.89;98241.63;5458272;26;19927;-79
2024/04/21 06:26:45;;;;;;;;;;;;;;;15.98;63.38;98251.41;5458064;26;19935;-80
2024/04/21 06:29:10;;;;;;;;;;;;;;;16.51;61.23;98251.94;5458586;26;19934;-81
2024/04/21 06:31:35;;;;;;;;;;;;;;;17.68;57.07;98260.81;5458285;26;19928;-81
2024/04/21 06:34:01;;;;;;;;;;;;;;;18.59;52.62;98256.88;5443911;26;20360;-83
2024/04/21 06:36:27;;;;;;;;;;;;;;;19.66;48.76;98263.56;5458532;26;19928;-82
2024/04/21 06:38:54;;;;;;;;;;;;;;;20.51;46.42;98254.56;5490740;26;19935;-84
2024/04/21 06:41:19;;;;;;;;;;;;;;;21.45;42.46;98262.56;5473847;26;19928;-82
2024/04/21 06:43:45;;;;;;;;;;;;;;;20.85;43.69;98264.41;5435512;26;20014;-83
2024/04/21 06:46:10;;;;;;;;;;;;;;;19.94;46.70;98264.34;5458231;26;20368;-83
2024/04/21 06:48:35;;;;;;;;;;;;;;;20.21;46.27;98263.53;5479442;26;19938;-82
2024/04/21 06:51:01;;;;;;;;;;;;;;;20.35;45.16;98272.97;5490091;26;19938;-81
2024/04/21 06:53:26;;;;;;;;;;;;;;;20.93;44.82;98276.63;5464285;26;19934;-80
2024/04/21 06:55:51;;;;;;;;;;;;;;;20.52;44.59;98273.69;5476822;26;20356;-80
2024/04/21 06:58:18;;;;;;;;;;;;;;;20.59;45.04;98269.59;5457675;26;19928;-80
2024/04/21 07:00:44;;;;;;;;;;;;;;;20.99;42.35;98273.78;5436461;26;20083;-79
2024/04/21 07:03:09;;;;;;;;;;;;;;;21.04;42.99;98268.13;5445416;26;19940;-80
2024/04/21 07:05:34;;;;;;;;;;;;;;;21.45;42.53;98259.78;5449266;26;19948;-79
2024/04/21 07:08:00;;;;;;;;;;;;;;;21.56;40.91;98258.16;5488720;26;19934;-78
2024/04/21 07:10:25;;;;;;;;;;;;;;;22.06;41.20;98263.41;5457012;26;19948;-79
2024/04/21 07:12:50;;;;;;;;;;;;;;;22.04;40.04;98254.72;5456303;26;19940;-78
2024/04/21 07:15:16;;;;;;;;;;;;;;;21.45;39.72;98259.78;5456230;26;20376;-79
2024/04/21 07:17:41;;;;;;;;;;;;;;;19.82;44.28;98263.56;5458429;26;19934;-79
2024/04/21 07:20:06;;;;;;;;;;;;;;;18.61;45.68;98265.56;5458359;26;19928;-78
2024/04/21 07:22:31;;;;;;;;;;;;;;;18.47;47.86;98269.25;5460530;26;19954;-78
2024/04/21 07:24:57;;;;;;;;;;;;;;;18.41;47.86;98265.66;5459059;26;19928;-79
2024/04/21 07:27:22;;;;;;;;;;;;;;;17.92;47.69;98266.09;5458800;26;19928;-78
2024/04/21 07:29:47;;;;;;;;;;;;;;;17.64;49.00;98260.28;5456258;26;19935;-80
2024/04/21 07:32:13;;;;;;;;;;;;;;;17.47;51.49;98263.69;5455811;26;19934;-79
2024/04/21 07:34:38;;;;;;;;;;;;;;;18.07;49.78;98261.91;5455287;26;20372;-78
2024/04/21 07:37:03;;;;;;;;;;;;;;;17.56;51.27;98271.09;5456011;26;19934;-80
2024/04/21 07:39:29;;;;;;;;;;;;;;;18.05;49.70;98266.44;5456570;26;19928;-79
2024/04/21 07:41:54;;;;;;;;;;;;;;;18.09;48.49;98267.75;5456786;26;20367;-78
2024/04/21 07:44:20;;;;;;;;;;;;;;;17.78;48.90;98265.00;5467429;26;19940;-80
2024/04/21 07:46:45;;;;;;;;;;;;;;;17.65;51.52;98259.03;5460177;26;20352;-79
2024/04/21 07:49:11;;;;;;;;;;;;;;;17.56;50.85;98264.75;5459097;26;19928;-79
2024/04/21 07:51:36;;;;;;;;;;;;;;;17.80;49.58;98262.44;5435729;26;20378;-79
2024/04/21 07:54:01;;;;;;;;;;;;;;;17.59;46.85;98266.56;5459317;26;19936;-78
2024/04/21 07:56:27;;;;;;;;;;;;;;;17.70;46.06;98267.47;5435365;26;19928;-80
2024/04/21 07:58:52;;;;;;;;;;;;;;;17.30;48.08;98256.41;5459391;26;19939;-79
2024/04/21 08:01:17;;;;;;;;;;;;;;;17.45;47.45;98257.81;5491120;26;20297;-80
2024/04/21 08:03:43;;;;;;;;;;;;;;;17.32;49.49;98256.66;5458984;26;19928;-79
2024/04/21 08:06:08;;;;;;;;;;;;;;;17.33;47.49;98250.59;5459652;26;19928;-79
2024/04/21 08:08:33;;;;;;;;;;;;;;;17.32;49.16;98251.06;5459522;26;20000;-79
2024/04/21 08:11:00;;;;;;;;;;;;;;;17.51;49.05;98252.28;5458816;26;19928;-79
2024/04/21 08:13:25;;;;;;;;;;;;;;;17.58;47.32;98251.06;5459543;26;19935;-79
2024/04/21 08:15:56;;;;;;;;;;;;;;;17.51;47.31;98246.69;5458486;26;19928;-78
2024/04/21 08:18:22;;;;;;;;;;;;;;;17.38;47.24;98246.31;5451220;26;19996;-78
2024/04/21 08:20:47;;;;;;;;;;;;;;;17.50;46.77;98251.50;5459299;26;19936;-78
2024/04/21 08:23:19;;;;;;;;;;;;;;;18.01;45.74;98249.16;5491963;26;20000;-78
2024/04/21 08:25:45;;;;;;;;;;;;;;;18.30;45.38;98238.41;5435522;26;19928;-79
2024/04/21 08:28:10;;;;;;;;;;;;;;;17.91;46.81;98248.56;5476735;26;19943;-78
2024/04/21 08:30:36;;;;;;;;;;;;;;;17.69;46.46;98240.78;5459419;26;20022;-78
2024/04/21 08:33:01;;;;;;;;;;;;;;;17.48;46.75;98242.09;5458760;26;19932;-79
2024/04/21 08:35:26;;;;;;;;;;;;;;;17.38;46.18;98240.72;5458596;26;19961;-79
2024/04/21 08:37:52;;;;;;;;;;;;;;;17.08;48.20;98237.38;5458559;26;19931;-80
2024/04/21 08:40:17;;;;;;;;;;;;;;;17.21;48.87;98225.84;5446585;26;19955;-79
2024/04/21 08:42:42;;;;;;;;;;;;;;;16.98;47.82;98234.00;5446269;26;19940;-79
2024/04/21 08:45:08;;;;;;;;;;;;;;;17.57;46.74;98227.94;5458463;26;20001;-79
2024/04/21 08:47:34;;;;;;;;;;;;;;;17.77;47.29;98222.31;5459012;26;19931;-79
2024/04/21 08:50:00;;;;;;;;;;;;;;;17.78;47.53;98223.06;5458695;26;19928;-79
2024/04/21 08:52:26;;;;;;;;;;;;;;;18.22;46.87;98214.19;5459187;26;19932;-78
2024/04/21 08:54:51;;;;;;;;;;;;;;;18.35;46.72;98219.34;5458792;26;19935;-80
2024/04/21 08:57:18;;;;;;;;;;;;;;;17.65;46.59;98215.09;5491052;26;20279;-79
2024/04/21 08:59:44;;;;;;;;;;;;;;;17.58;46.35;98217.53;5458643;26;20356;-80
2024/04/21 09:02:11;;;;;;;;;;;;;;;17.44;47.66;98222.00;5458831;26;20008;-79
2024/04/21 09:04:38;;;;;;;;;;;;;;;17.84;46.19;98223.88;5458563;26;19936;-80
2024/04/21 09:07:03;;;;;;;;;;;;;;;18.08;44.67;98215.91;5458646;26;19976;-79
2024/04/21 09:09:29;;;;;;;;;;;;;;;17.86;45.37;98221.34;5458590;26;19932;-78
2024/04/21 09:11:54;;;;;;;;;;;;;;;17.69;45.79;98218.41;5433818;26;20380;-78
2024/04/21 09:14:22;;;;;;;;;;;;;;;18.13;46.93;98217.97;5458175;26;19935;-78
2024/04/21 09:16:47;;;;;;;;;;;;;;;18.30;44.46;98218.06;5458454;26;20378;-78
2024/04/21 09:19:12;;;;;;;;;;;;;;;17.89;45.74;98220.34;5458005;26;19928;-78
2024/04/21 09:21:37;;;;;;;;;;;;;;;17.63;46.69;98223.19;5434302;26;19935;-78
2024/04/21 09:24:03;;;;;;;;;;;;;;;17.34;48.11;98217.84;5457478;26;19928;-78
2024/04/21 09:26:28;;;;;;;;;;;;;;;17.23;47.48;98217.75;5458637;26;19936;-78
2024/04/21 09:28:54;;;;;;;;;;;;;;;17.03;48.07;98219.31;5446245;26;19929;-79
2024/04/21 09:31:19;;;;;;;;;;;;;;;16.80;47.91;98206.41;5445941;26;20425;-78
2024/04/21 09:33:44;;;;;;;;;;;;;;;16.79;48.52;98210.44;5457741;26;19928;-80
2024/04/21 09:36:10;;;;;;;;;;;;;;;16.53;49.10;98213.13;5458083;26;19939;-80
2024/04/21 09:38:35;;;;;;;;;;;;;;;16.21;50.91;98212.22;5457517;26;20256;-78
2024/04/21 09:41:01;;;;;;;;;;;;;;;16.38;50.66;98209.66;5458261;26;20354;-79
2024/04/21 09:43:28;;;;;;;;;;;;;;;16.82;50.90;98209.44;5434029;26;19939;-78
2024/04/21 09:45:54;;;;;;;;;;;;;;;17.36;48.66;98206.97;5457486;26;19951;-78
2024/04/21 09:48:20;;;;;;;;;;;;;;;17.26;48.39;98200.00;5489129;26;19934;-80
2024/04/21 09:50:45;;;;;;;;;;;;;;;17.22;48.54;98196.66;5455406;26;20257;-79
2024/04/21 09:53:11;;;;;;;;;;;;;;;17.06;47.82;98190.41;5443820;26;19935;-78
2024/04/21 09:55:37;;;;;;;;;;;;;;;17.28;47.67;98198.25;5451147;26;20371;-79
2024/04/21 09:58:03;;;;;;;;;;;;;;;17.37;47.53;98197.28;5446681;26;20252;-80
2024/04/21 10:00:29;;;;;;;;;;;;;;;17.32;46.64;98196.00;5458535;26;19934;-80
2024/04/21 10:02:56;;;;;;;;;;;;;;;17.75;47.90;98194.09;5458584;26;19935;-82
2024/04/21 10:05:24;;;;;;;;;;;;;;;18.58;46.65;98176.25;5458482;26;20363;-79
2024/04/21 10:07:50;;;;;;;;;;;;;;;19.34;42.99;98176.16;5458030;26;19931;-79
2024/04/21 10:10:20;;;;;;;;;;;;;;;19.35;43.06;98172.09;5456884;26;19977;-79
2024/04/21 10:12:46;;;;;;;;;;;;;;;19.10;45.16;98165.44;5455317;26;20037;-79
2024/04/21 10:15:13;;;;;;;;;;;;;;;18.86;45.58;98165.13;5453533;26;19951;-78
2024/04/21 10:17:39;;;;;;;;;;;;;;;18.36;47.70;98164.94;5454203;26;19928;-79
2024/04/21 10:20:07;;;;;;;;;;;;;;;18.35;48.53;98163.41;5453692;26;20445;-79
2024/04/21 10:22:32;;;;;;;;;;;;;;;18.58;46.99;98149.03;5440725;26;19929;-78
2024/04/21 10:24:58;;;;;;;;;;;;;;;18.93;44.55;98148.59;5443859;26;19936;-79
2024/04/21 10:27:23;;;;;;;;;;;;;;;19.22;43.73;98138.97;5454100;26;20261;-80
2024/04/21 10:29:49;;;;;;;;;;;;;;;18.84;44.43;98134.84;5455585;26;19947;-79
2024/04/21 10:32:16;;;;;;;;;;;;;;;18.76;45.00;98142.19;5457212;26;19932;-78
2024/04/21 10:34:46;;;;;;;;;;;;;;;18.97;45.33;98137.16;5456843;26;19936;-79
2024/04/21 10:37:19;;;;;;;;;;;;;;;19.20;43.81;98133.09;5456946;26;19928;-79
2024/04/21 10:39:45;;;;;;;;;;;;;;;18.18;44.16;98144.53;5456530;26;19960;-79
2024/04/21 10:42:11;;;;;;;;;;;;;;;17.94;45.96;98129.41;5457191;26;19928;-78
2024/04/21 10:44:38;;;;;;;;;;;;;;;18.77;43.00;98132.53;5456412;26;19935;-79
2024/04/21 10:47:03;;;;;;;;;;;;;;;19.02;41.93;98133.59;5457159;26;19935;-79
2024/04/21 10:49:28;;;;;;;;;;;;;;;18.45;43.00;98125.53;5456764;26;19960;-78
2024/04/21 10:51:54;;;;;;;;;;;;;;;18.43;46.66;98126.06;5459657;26;19939;-80
2024/04/21 10:54:19;;;;;;;;;;;;;;;18.55;42.97;98119.28;5460357;26;19977;-78
2024/04/21 10:56:45;;;;;;;;;;;;;;;18.72;42.67;98113.72;5460000;26;19935;-79
2024/04/21 10:59:10;;;;;;;;;;;;;;;18.83;42.14;98115.75;5460200;26;19928;-78
2024/04/21 11:01:36;;;;;;;;;;;;;;;18.97;41.93;98115.53;5459829;26;20363;-79
2024/04/21 11:04:03;;;;;;;;;;;;;;;18.61;43.71;98103.25;5459300;26;19939;-78
2024/04/21 11:06:30;;;;;;;;;;;;;;;18.73;43.00;98106.06;5460160;26;19938;-78
2024/04/21 11:08:55;;;;;;;;;;;;;;;18.62;42.66;98096.41;5460475;26;19935;-79
2024/04/21 11:11:21;;;;;;;;;;;;;;;17.82;43.87;98109.03;5460075;26;19928;-80
2024/04/21 11:13:46;;;;;;;;;;;;;;;17.56;44.05;98114.69;5458774;26;19938;-80
2024/04/21 11:16:12;;;;;;;;;;;;;;;16.92;44.38;98107.59;5458928;26;19935;-81
2024/04/21 11:18:40;;;;;;;;;;;;;;;16.78;45.78;98116.06;5460751;26;19935;-80
2024/04/21 11:21:06;;;;;;;;;;;;;;;16.65;46.62;98111.63;5440985;26;20268;-80
2024/04/21 11:23:31;;;;;;;;;;;;;;;16.56;45.92;98119.38;5442943;26;20355;-80
2024/04/21 11:25:57;;;;;;;;;;;;;;;16.38;49.24;98114.88;5444021;26;19928;-79
2024/04/21 11:28:22;;;;;;;;;;;;;;;16.60;51.46;98117.16;5459007;26;20032;-79
2024/04/21 11:30:48;;;;;;;;;;;;;;;16.71;52.38;98120.06;5433993;26;19929;-79
2024/04/21 11:33:13;;;;;;;;;;;;;;;16.82;51.23;98114.56;5455988;26;20237;-80
2024/04/21 11:35:44;;;;;;;;;;;;;;;16.60;49.94;98114.38;5452253;26;19943;-79
2024/04/21 11:38:09;;;;;;;;;;;;;;;16.60;49.74;98106.75;5454435;26;19942;-81
2024/04/21 11:40:38;;;;;;;;;;;;;;;16.85;50.73;98088.50;5449629;26;19928;-80
2024/04/21 11:43:03;;;;;;;;;;;;;;;17.28;48.54;98077.41;5457887;26;20352;-80
2024/04/21 11:45:30;;;;;;;;;;;;;;;17.59;47.32;98076.59;5459476;26;19977;-81
2024/04/21 11:47:56;;;;;;;;;;;;;;;18.03;46.15;98065.66;5459188;26;19940;-79
2024/04/21 11:50:22;;;;;;;;;;;;;;;18.39;44.38;98057.63;5489723;26;20251;-80
2024/04/21 11:52:47;;;;;;;;;;;;;;;18.01;43.74;98048.66;5464659;26;19956;-80
2024/04/21 11:55:13;;;;;;;;;;;;;;;17.73;44.14;98062.47;5442873;26;19936;-80
2024/04/21 11:57:39;;;;;;;;;;;;;;;17.93;44.91;98052.41;5476079;26;19928;-79
2024/04/21 12:00:04;;;;;;;;;;;;;;;17.88;44.56;98051.91;5447628;26;19974;-79
2024/04/21 12:02:29;;;;;;;;;;;;;;;18.25;43.58;98051.00;5458228;26;19931;-79
2024/04/21 12:04:55;;;;;;;;;;;;;;;18.10;43.40;98058.81;5459225;26;20356;-79
2024/04/21 12:07:22;;;;;;;;;;;;;;;17.36;43.59;98056.16;5466179;26;19928;-79
2024/04/21 12:09:48;;;;;;;;;;;;;;;16.93;45.60;98041.38;5461177;26;19939;-79
2024/04/21 12:12:13;;;;;;;;;;;;;;;16.69;45.57;98041.69;5453376;26;20341;-80
2024/04/21 12:14:39;;;;;;;;;;;;;;;16.93;45.11;98035.81;5450177;26;19935;-79
2024/04/21 12:17:04;;;;;;;;;;;;;;;16.89;46.69;98044.38;5450841;26;19955;-79
2024/04/21 12:19:31;;;;;;;;;;;;;;;16.96;47.99;98051.53;5463924;26;19928;-80
2024/04/21 12:21:56;;;;;;;;;;;;;;;16.93;47.48;98049.75;5459399;26;19935;-79
2024/04/21 12:24:22;;;;;;;;;;;;;;;16.83;47.11;98053.97;5442269;26;19928;-81
2024/04/21 12:26:47;;;;;;;;;;;;;;;16.49;47.49;98052.88;5422437;26;19927;-80
2024/04/21 12:29:13;;;;;;;;;;;;;;;16.35;50.04;98048.16;5455577;26;19928;-80
2024/04/21 12:31:38;;;;;;;;;;;;;;;15.92;52.52;98050.72;5453027;26;19927;-82
2024/04/21 12:34:03;;;;;;;;;;;;;;;15.96;59.42;98059.66;5459570;26;19927;-81
2024/04/21 12:36:29;;;;;;;;;;;;;;;15.70;70.65;98054.00;5465264;26;20399;-81